GVBA

Rabil Airport

Rabil, Cape Verde
METAR GVBA 211900Z 03014KT 9999 BKN015 22/15 Q1014 NOSIG
Observed Flight Rules
Apr-21 @ 19:00 UTC (4 hours ago) Marginal Visual Flight Rules
Wind Visibility Clouds
30° at 14 knots 10,000+ meters
  • Broken at 1,500' AGL
Temperatures Readings
Current 22°C / 72°F
Dewpoint 15°C / 59°F
Humidity 65%
Altimeter 29.94" Hg
Pressure 1014 hPa
Elevation 22
METAR GVBA 211900Z 03014KT 9999 BKN015 22/15 Q1014 NOSIG
Observed Flight Rules
Apr-21 @ 19:00 UTC
(4 hours ago)
MVFR
Wind Visibility
30° at 14 knots 10,000+ meters
Clouds
  • Broken at 1,500' AGL
Temperature Dewpoint
22°C / 72°F 15°C / 59°F
Humidity Altimeter Pressure
65% 29.94" Hg 1014 hPa